createdAt,value
2023-11-02T00:02:59.031Z,1.20
2023-11-02T00:06:33.423Z,0.90
2023-11-02T00:10:00.162Z,1.00
2023-11-02T00:13:32.970Z,1.10
2023-11-02T00:16:56.957Z,1.00
2023-11-02T00:20:24.966Z,0.95
2023-11-02T00:23:56.992Z,0.90
2023-11-02T00:27:20.010Z,0.80
2023-11-02T00:30:42.929Z,0.90
2023-11-02T00:33:59.001Z,1.00
2023-11-02T00:37:21.941Z,0.93
2023-11-02T00:40:46.069Z,0.90
2023-11-02T00:44:11.929Z,1.10
2023-11-02T00:47:35.980Z,1.20
2023-11-02T00:51:13.008Z,1.38
2023-11-02T00:55:06.950Z,1.05
2023-11-02T00:58:31.980Z,1.10
2023-11-02T01:01:54.974Z,1.02
2023-11-02T01:05:20.027Z,0.93
2023-11-02T01:08:48.953Z,0.90
2023-11-02T01:12:12.018Z,1.05
2023-11-02T01:16:15.946Z,1.20
2023-11-02T01:20:09.026Z,0.90
2023-11-02T01:23:32.954Z,0.85
2023-11-02T01:27:11.057Z,1.10
2023-11-02T01:30:36.995Z,0.95
2023-11-02T01:34:14.013Z,1.10
2023-11-02T01:37:36.968Z,1.02
2023-11-02T01:41:18.997Z,1.10
2023-11-02T01:44:57.060Z,1.00
2023-11-02T01:48:22.079Z,1.08
2023-11-02T01:51:50.014Z,1.13
2023-11-02T01:55:30.985Z,1.10
2023-11-02T01:59:04.039Z,1.10
2023-11-02T02:02:39.009Z,1.10
2023-11-02T02:06:08.020Z,1.13
2023-11-02T02:09:54.013Z,1.02
2023-11-02T02:13:39.033Z,1.10
2023-11-02T02:17:35.036Z,1.20
2023-11-02T02:21:50.012Z,1.25
2023-11-02T02:25:41.007Z,1.33
2023-11-02T02:29:19.052Z,1.52
2023-11-02T02:32:45.028Z,1.17
2023-11-02T02:36:52.245Z,1.05
2023-11-02T02:40:22.004Z,1.20
2023-11-02T02:43:47.068Z,1.30
2023-11-02T02:47:13.012Z,0.98
2023-11-02T02:50:40.060Z,1.20
2023-11-02T02:54:04.102Z,1.30
2023-11-02T02:57:28.114Z,1.30
2023-11-02T03:00:52.014Z,1.08
2023-11-02T03:04:15.069Z,1.30
2023-11-02T03:07:42.004Z,1.10
2023-11-02T03:11:12.787Z,1.27
2023-11-02T03:14:35.158Z,1.10
2023-11-02T03:18:07.172Z,1.45
2023-11-02T03:21:31.073Z,1.00
2023-11-02T03:25:10.094Z,1.20
2023-11-02T03:28:46.041Z,1.10
2023-11-02T03:32:36.066Z,1.20
2023-11-02T03:36:54.031Z,1.00
2023-11-02T03:40:56.109Z,1.10
2023-11-02T03:44:53.021Z,0.90
2023-11-02T03:48:29.249Z,0.93
2023-11-02T03:52:29.039Z,0.80
2023-11-02T03:56:21.274Z,1.08
2023-11-02T04:00:19.102Z,1.02
2023-11-02T04:03:45.151Z,0.93
2023-11-02T04:07:17.052Z,0.90
2023-11-02T04:10:42.199Z,1.05
2023-11-02T04:14:25.047Z,1.08
2023-11-02T04:17:49.134Z,1.10
2023-11-02T04:21:14.116Z,1.30
2023-11-02T04:24:38.063Z,1.17
2023-11-02T04:28:01.664Z,0.90
2023-11-02T04:31:25.106Z,1.20
2023-11-02T04:34:50.112Z,0.80
2023-11-02T04:38:25.130Z,1.00
2023-11-02T04:41:49.067Z,0.90
2023-11-02T04:45:14.152Z,0.90
2023-11-02T04:48:38.154Z,0.90
2023-11-02T04:52:16.138Z,0.80
2023-11-02T04:55:41.055Z,1.30
2023-11-02T04:59:05.105Z,1.52
2023-11-02T05:02:28.131Z,0.93
2023-11-02T05:05:51.155Z,1.00
2023-11-02T05:09:15.147Z,0.80
2023-11-02T05:12:39.177Z,0.70
2023-11-02T05:16:07.129Z,0.88
2023-11-02T05:19:23.772Z,0.82
2023-11-02T05:22:41.129Z,0.70
2023-11-02T05:26:04.124Z,1.08
2023-11-02T05:29:27.157Z,0.90
2023-11-02T05:32:51.168Z,1.00
2023-11-02T05:36:15.205Z,1.70
2023-11-02T05:39:40.157Z,1.70
2023-11-02T05:43:05.139Z,1.10
2023-11-02T05:46:30.253Z,1.08
2023-11-02T05:49:55.121Z,1.00
2023-11-02T05:53:23.124Z,0.90
2023-11-02T05:56:47.130Z,1.02
2023-11-02T06:00:17.198Z,1.17
2023-11-02T06:03:41.187Z,1.10
2023-11-02T06:07:04.255Z,0.90
2023-11-02T06:10:27.140Z,1.00
2023-11-02T06:13:51.159Z,1.10
2023-11-02T06:17:15.128Z,1.17
2023-11-02T06:20:38.155Z,1.00
2023-11-02T06:24:02.164Z,1.20
2023-11-02T06:27:25.189Z,1.00
2023-11-02T06:30:48.184Z,1.10
2023-11-02T06:34:12.228Z,1.27
2023-11-02T06:37:35.181Z,0.95
2023-11-02T06:40:59.159Z,0.70
2023-11-02T06:44:23.133Z,0.93
2023-11-02T06:47:47.321Z,0.80
2023-11-02T06:51:11.156Z,0.80
2023-11-02T06:54:35.340Z,1.10
2023-11-02T06:57:59.132Z,0.90
2023-11-02T07:01:22.196Z,0.90
2023-11-02T07:04:38.803Z,0.85
2023-11-02T07:07:58.286Z,1.00
2023-11-02T07:11:22.185Z,0.90
2023-11-02T07:14:46.186Z,1.23
2023-11-02T07:18:09.277Z,1.60
2023-11-02T07:21:33.214Z,1.30
2023-11-02T07:24:57.229Z,1.80
2023-11-02T07:28:21.168Z,1.23
2023-11-02T07:31:47.180Z,1.02
2023-11-02T07:35:13.194Z,1.15
2023-11-02T07:38:37.176Z,1.40
2023-11-02T07:42:02.176Z,1.17
2023-11-02T07:45:28.249Z,1.15
2023-11-02T07:48:52.290Z,1.00
2023-11-02T07:52:16.210Z,1.30
2023-11-02T07:55:41.190Z,1.50
2023-11-02T07:59:05.224Z,1.10
2023-11-02T08:02:28.197Z,1.40
2023-11-02T08:05:51.231Z,1.50
2023-11-02T08:09:17.222Z,1.30
2023-11-02T08:12:42.254Z,1.13
2023-11-02T08:16:06.196Z,1.33
2023-11-02T08:19:30.227Z,0.85
2023-11-02T08:22:54.232Z,1.13
2023-11-02T08:26:17.177Z,1.15
2023-11-02T08:29:41.289Z,1.60
2023-11-02T08:33:05.236Z,1.20
2023-11-02T08:36:29.268Z,1.25
2023-11-02T08:39:52.324Z,1.50
2023-11-02T08:43:17.216Z,1.30
2023-11-02T08:46:42.336Z,1.90
2023-11-02T08:50:05.203Z,1.20
2023-11-02T08:53:29.255Z,1.20
2023-11-02T08:56:52.207Z,1.20
2023-11-02T09:00:17.235Z,1.38
2023-11-02T09:03:42.269Z,1.20
2023-11-02T09:07:06.287Z,1.50
2023-11-02T09:10:31.224Z,1.65
2023-11-02T09:13:54.239Z,1.80
2023-11-02T09:17:17.220Z,1.65
2023-11-02T09:20:40.423Z,2.00
2023-11-02T09:24:03.207Z,1.85
2023-11-02T09:27:26.379Z,1.30
2023-11-02T09:30:42.974Z,1.23
2023-11-02T09:34:02.334Z,1.70
2023-11-02T09:37:25.233Z,1.75
2023-11-02T09:40:50.241Z,1.30
2023-11-02T09:44:16.261Z,1.20
2023-11-02T09:47:39.318Z,1.40
2023-11-02T09:51:07.257Z,1.00
2023-11-02T09:54:38.398Z,1.40
2023-11-02T09:58:09.621Z,1.00
2023-11-02T10:01:34.220Z,1.00
2023-11-02T10:04:58.288Z,1.05
2023-11-02T10:08:22.298Z,1.30
2023-11-02T10:11:51.290Z,1.30
2023-11-02T10:15:16.263Z,1.20
2023-11-02T10:18:39.683Z,1.50
2023-11-02T10:22:04.372Z,1.70
2023-11-02T10:25:30.325Z,1.73
2023-11-02T10:28:54.233Z,1.20
2023-11-02T10:32:18.326Z,1.20
2023-11-02T10:35:44.231Z,1.88
2023-11-02T10:39:07.287Z,1.70
2023-11-02T10:42:32.346Z,1.00
2023-11-02T10:45:57.275Z,1.52
2023-11-02T10:49:23.390Z,1.02
2023-11-02T10:53:00.276Z,1.48
2023-11-02T10:56:31.266Z,1.60
2023-11-02T10:59:55.243Z,1.30
2023-11-02T11:03:22.350Z,1.20
2023-11-02T11:06:45.481Z,1.23
2023-11-02T11:10:11.283Z,1.80
2023-11-02T11:13:37.258Z,1.70
2023-11-02T11:17:00.296Z,1.58
2023-11-02T11:20:26.277Z,3.97
2023-11-02T11:23:57.308Z,2.38
2023-11-02T11:27:21.520Z,2.22
2023-11-02T11:30:51.312Z,3.03
2023-11-02T11:34:16.435Z,3.65
2023-11-02T11:38:05.282Z,3.90
2023-11-02T11:41:58.482Z,3.85
2023-11-02T11:45:47.324Z,3.42
2023-11-02T11:49:11.350Z,3.20
2023-11-02T11:52:38.277Z,3.22
2023-11-02T11:56:12.309Z,2.53
2023-11-02T11:59:35.276Z,1.77
2023-11-02T12:03:04.390Z,1.33
2023-11-02T12:06:29.276Z,0.90
2023-11-02T12:09:53.351Z,0.90
2023-11-02T12:13:17.323Z,0.70
2023-11-02T12:16:50.326Z,0.90
2023-11-02T12:20:15.295Z,1.63
2023-11-02T12:23:48.294Z,0.68
2023-11-02T12:27:29.294Z,0.73
2023-11-02T12:30:59.361Z,0.80
2023-11-02T12:34:24.520Z,0.93
2023-11-02T12:37:49.290Z,1.00
2023-11-02T12:41:14.557Z,0.70
2023-11-02T12:44:38.300Z,0.80
2023-11-02T12:48:03.796Z,0.60
2023-11-02T12:51:38.414Z,0.80
2023-11-02T12:55:12.370Z,0.80
2023-11-02T12:58:36.385Z,0.95
2023-11-02T13:02:08.316Z,0.80
2023-11-02T13:05:34.306Z,1.00
2023-11-02T13:08:58.333Z,1.05
2023-11-02T13:12:22.359Z,1.13
2023-11-02T13:15:45.386Z,1.00
2023-11-02T13:19:01.394Z,1.20
2023-11-02T13:22:24.350Z,1.08
2023-11-02T13:25:49.344Z,1.10
2023-11-02T13:29:15.159Z,1.15
2023-11-02T13:32:40.031Z,1.02
2023-11-02T13:36:04.353Z,1.20
2023-11-02T13:39:28.400Z,1.10
2023-11-02T13:42:55.410Z,1.00
2023-11-02T13:46:18.358Z,1.00
2023-11-02T13:49:42.390Z,0.77
2023-11-02T13:53:06.450Z,1.00
2023-11-02T13:56:30.588Z,1.92
2023-11-02T13:59:54.345Z,1.05
2023-11-02T14:03:18.484Z,0.90
2023-11-02T14:06:41.478Z,1.02
2023-11-02T14:10:06.364Z,0.90
2023-11-02T14:13:30.181Z,1.00
2023-11-02T14:16:55.378Z,0.85
2023-11-02T14:20:19.415Z,1.00
2023-11-02T14:23:44.327Z,0.95
2023-11-02T14:27:09.449Z,1.40
2023-11-02T14:30:34.415Z,1.38
2023-11-02T14:33:57.444Z,1.40
2023-11-02T14:37:14.002Z,1.10
2023-11-02T14:40:33.509Z,0.93
2023-11-02T14:43:57.352Z,1.27
2023-11-02T14:47:21.385Z,0.90
2023-11-02T14:50:48.350Z,0.90
2023-11-02T14:54:13.497Z,0.85
2023-11-02T14:57:36.419Z,0.90
2023-11-02T15:01:01.410Z,0.80
2023-11-02T15:04:26.550Z,0.90
2023-11-02T15:07:51.407Z,1.00
2023-11-02T15:11:15.364Z,0.80
2023-11-02T15:14:41.838Z,0.80
2023-11-02T15:18:06.430Z,0.68
2023-11-02T15:21:30.451Z,1.23
2023-11-02T15:24:54.430Z,1.10
2023-11-02T15:28:17.589Z,0.63
2023-11-02T15:31:41.410Z,0.88
2023-11-02T15:35:05.380Z,0.80
2023-11-02T15:38:24.042Z,0.90
2023-11-02T15:41:42.420Z,0.80
2023-11-02T15:45:05.391Z,0.85
2023-11-02T15:48:30.481Z,0.77
2023-11-02T15:52:01.389Z,0.82
2023-11-02T15:55:25.424Z,0.98
2023-11-02T15:58:48.405Z,0.85
2023-11-02T16:02:14.124Z,0.80
2023-11-02T16:05:38.413Z,1.00
2023-11-02T16:09:01.381Z,0.95
2023-11-02T16:12:25.450Z,1.10
2023-11-02T16:15:49.497Z,0.80
2023-11-02T16:19:14.629Z,1.08
2023-11-02T16:22:37.405Z,1.23
2023-11-02T16:26:00.453Z,1.00
2023-11-02T16:29:23.594Z,0.90
2023-11-02T16:32:49.628Z,0.80
2023-11-02T16:36:15.539Z,0.70
2023-11-02T16:39:39.445Z,1.00
2023-11-02T16:43:03.405Z,0.88
2023-11-02T16:46:28.571Z,0.70
2023-11-02T16:49:51.431Z,0.70
2023-11-02T16:53:15.449Z,0.88
2023-11-02T16:56:38.434Z,0.80
2023-11-02T17:00:02.440Z,0.70
2023-11-02T17:03:25.455Z,0.70
2023-11-02T17:06:51.636Z,0.80
2023-11-02T17:10:16.579Z,0.98
2023-11-02T17:13:40.418Z,0.90
2023-11-02T17:17:03.457Z,0.90
2023-11-02T17:20:26.436Z,0.70
2023-11-02T17:23:51.414Z,0.85
2023-11-02T17:27:15.456Z,1.13
2023-11-02T17:30:38.419Z,0.88
2023-11-02T17:34:01.586Z,0.80
2023-11-02T17:37:24.414Z,0.73
2023-11-02T17:40:47.490Z,1.10
2023-11-02T17:44:11.457Z,0.80
2023-11-02T17:47:35.487Z,1.50
2023-11-02T17:50:59.448Z,1.23
2023-11-02T17:54:23.546Z,0.82
2023-11-02T17:57:46.477Z,0.70
2023-11-02T18:01:09.451Z,0.95
2023-11-02T18:04:32.486Z,0.80
2023-11-02T18:07:57.445Z,0.90
2023-11-02T18:11:20.445Z,0.90
2023-11-02T18:14:44.476Z,0.80
2023-11-02T18:18:07.575Z,0.70
2023-11-02T18:21:31.463Z,0.80
2023-11-02T18:24:55.483Z,0.80
2023-11-02T18:28:19.450Z,0.80
2023-11-02T18:31:45.580Z,1.17
2023-11-02T18:35:04.579Z,0.68
2023-11-02T18:38:22.502Z,0.80
2023-11-02T18:41:46.452Z,1.40
2023-11-02T18:45:12.453Z,1.35
2023-11-02T18:48:35.630Z,1.10
2023-11-02T18:52:02.521Z,1.23
2023-11-02T18:55:26.661Z,1.25
2023-11-02T18:58:52.471Z,0.75
2023-11-02T19:02:16.600Z,0.80
2023-11-02T19:05:43.573Z,0.80
2023-11-02T19:09:08.496Z,0.90
2023-11-02T19:12:32.495Z,0.60
2023-11-02T19:15:57.866Z,0.70
2023-11-02T19:19:21.587Z,0.80
2023-11-02T19:22:45.500Z,0.68
2023-11-02T19:26:09.488Z,0.50
2023-11-02T19:29:32.528Z,0.73
2023-11-02T19:32:56.518Z,0.63
2023-11-02T19:36:19.472Z,0.60
2023-11-02T19:39:43.532Z,0.52
2023-11-02T19:43:07.625Z,0.60
2023-11-02T19:46:35.536Z,0.63
2023-11-02T19:49:59.517Z,0.60
2023-11-02T19:53:22.492Z,0.70
2023-11-02T19:56:47.018Z,0.90
2023-11-02T20:00:10.503Z,0.70
2023-11-02T20:03:33.785Z,0.80
2023-11-02T20:06:58.541Z,0.63
2023-11-02T20:10:25.548Z,0.80
2023-11-02T20:13:48.500Z,0.90
2023-11-02T20:17:12.549Z,1.00
2023-11-02T20:20:35.564Z,1.10
2023-11-02T20:23:58.557Z,1.30
2023-11-02T20:27:22.483Z,1.17
2023-11-02T20:30:46.574Z,1.20
2023-11-02T20:34:10.597Z,1.10
2023-11-02T20:37:28.192Z,1.40
2023-11-02T20:40:46.547Z,1.13
2023-11-02T20:44:09.627Z,1.60
2023-11-02T20:47:33.574Z,1.40
2023-11-02T20:50:57.509Z,1.20
2023-11-02T20:54:21.490Z,1.40
2023-11-02T20:57:46.831Z,1.50
2023-11-02T21:01:11.574Z,1.50
2023-11-02T21:04:34.659Z,1.40
2023-11-02T21:07:58.581Z,1.30
2023-11-02T21:11:21.512Z,1.38
2023-11-02T21:14:45.521Z,1.55
2023-11-02T21:18:08.946Z,1.02
2023-11-02T21:21:32.575Z,1.35
2023-11-02T21:25:02.596Z,1.30
2023-11-02T21:28:26.579Z,1.25
2023-11-02T21:31:53.549Z,1.10
2023-11-02T21:35:17.626Z,1.50
2023-11-02T21:38:35.950Z,1.40
2023-11-02T21:41:53.573Z,1.23
2023-11-02T21:45:16.544Z,1.30
2023-11-02T21:48:41.691Z,1.20
2023-11-02T21:52:06.566Z,1.10
2023-11-02T21:55:29.594Z,1.30
2023-11-02T21:58:52.544Z,1.20
2023-11-02T22:02:16.550Z,1.30
2023-11-02T22:05:41.551Z,1.20
2023-11-02T22:09:05.654Z,1.20
2023-11-02T22:12:29.567Z,1.30
2023-11-02T22:15:53.605Z,1.15
2023-11-02T22:19:16.648Z,1.45
2023-11-02T22:22:39.605Z,1.30
2023-11-02T22:26:03.539Z,1.30
2023-11-02T22:29:27.578Z,1.60
2023-11-02T22:32:50.585Z,1.50
2023-11-02T22:36:16.600Z,1.45
2023-11-02T22:39:40.614Z,1.25
2023-11-02T22:43:04.616Z,1.17
2023-11-02T22:46:27.606Z,1.10
2023-11-02T22:49:51.615Z,1.10
2023-11-02T22:53:14.634Z,1.10
2023-11-02T22:56:37.618Z,1.00
2023-11-02T23:00:00.616Z,0.90
2023-11-02T23:03:24.599Z,0.95
2023-11-02T23:06:48.652Z,0.90
2023-11-02T23:10:12.636Z,0.88
2023-11-02T23:13:35.576Z,0.85
2023-11-02T23:17:06.702Z,1.00
2023-11-02T23:20:29.589Z,0.90
2023-11-02T23:23:52.604Z,1.10
2023-11-02T23:27:15.589Z,1.10
2023-11-02T23:30:40.724Z,0.93
2023-11-02T23:34:03.725Z,0.88
2023-11-02T23:37:27.582Z,1.00
2023-11-02T23:40:51.608Z,0.80
2023-11-02T23:44:16.599Z,0.90
2023-11-02T23:47:39.615Z,1.50
2023-11-02T23:51:03.607Z,0.90
2023-11-02T23:54:27.609Z,1.00
2023-11-02T23:57:51.686Z,0.80
